createdAt,value
2023-06-11T00:01:30.925Z,101376.50
2023-06-11T00:03:58.977Z,101377.22
2023-06-11T00:06:26.395Z,101375.38
2023-06-11T00:08:55.491Z,101376.94
2023-06-11T00:11:23.561Z,101375.94
2023-06-11T00:13:51.561Z,101380.38
2023-06-11T00:16:18.905Z,101378.53
2023-06-11T00:18:46.584Z,101378.38
2023-06-11T00:21:14.926Z,101379.22
2023-06-11T00:23:42.358Z,101379.09
2023-06-11T00:26:09.993Z,101379.09
2023-06-11T00:28:37.431Z,101376.41
2023-06-11T00:31:05.287Z,101381.63
2023-06-11T00:33:32.650Z,101384.34
2023-06-11T00:36:00.015Z,101383.34
2023-06-11T00:38:27.252Z,101385.19
2023-06-11T00:40:54.494Z,101392.31
2023-06-11T00:43:24.335Z,101386.91
2023-06-11T00:45:52.417Z,101390.47
2023-06-11T00:48:20.875Z,101377.94
2023-06-11T00:50:50.314Z,101385.91
2023-06-11T00:53:18.997Z,101383.22
2023-06-11T00:55:46.937Z,101383.22
2023-06-11T00:58:15.601Z,101379.50
2023-06-11T01:00:51.537Z,101384.06
2023-06-11T01:03:28.447Z,101391.31
2023-06-11T01:06:08.343Z,101393.00
2023-06-11T01:08:40.437Z,101397.44
2023-06-11T01:11:22.425Z,101390.31
2023-06-11T01:13:50.260Z,101393.00
2023-06-11T01:16:47.608Z,101400.16
2023-06-11T01:19:38.363Z,101399.28
2023-06-11T01:22:14.915Z,101395.59
2023-06-11T01:25:04.393Z,101401.13
2023-06-11T01:27:53.176Z,101401.13
2023-06-11T01:30:21.859Z,101400.28
2023-06-11T01:32:57.109Z,101397.44
2023-06-11T01:35:24.986Z,101399.13
2023-06-11T01:37:59.481Z,101408.09
2023-06-11T01:40:27.599Z,101405.41
2023-06-11T01:42:55.896Z,101406.25
2023-06-11T01:45:24.314Z,101412.50
2023-06-11T01:47:52.300Z,101413.50
2023-06-11T01:50:20.559Z,101413.38
2023-06-11T01:52:48.302Z,101412.50
2023-06-11T01:55:15.946Z,101414.22
2023-06-11T01:57:43.295Z,101408.94
2023-06-11T02:00:11.424Z,101417.91
2023-06-11T02:02:40.721Z,101417.91
2023-06-11T02:05:09.158Z,101416.94
2023-06-11T02:07:37.481Z,101413.38
2023-06-11T02:10:05.272Z,101415.22
2023-06-11T02:12:32.596Z,101419.75
2023-06-11T02:14:59.987Z,101418.78
2023-06-11T02:17:27.337Z,101413.38
2023-06-11T02:19:54.577Z,101416.94
2023-06-11T02:22:21.902Z,101413.38
2023-06-11T02:24:49.129Z,101416.09
2023-06-11T02:27:16.583Z,101413.38
2023-06-11T02:29:43.791Z,101414.22
2023-06-11T02:32:12.667Z,101413.38
2023-06-11T02:34:40.156Z,101411.53
2023-06-11T02:37:07.691Z,101419.63
2023-06-11T02:39:35.009Z,101418.78
2023-06-11T02:42:02.429Z,101425.03
2023-06-11T02:44:29.666Z,101422.34
2023-06-11T02:46:56.974Z,101414.22
2023-06-11T02:49:24.205Z,101420.50
2023-06-11T02:51:51.505Z,101418.78
2023-06-11T02:54:18.783Z,101425.03
2023-06-11T02:56:46.106Z,101429.59
2023-06-11T02:59:13.367Z,101429.75
2023-06-11T03:01:40.822Z,101433.28
2023-06-11T03:04:08.308Z,101431.44
2023-06-11T03:06:35.903Z,101428.88
2023-06-11T03:09:03.257Z,101430.75
2023-06-11T03:11:30.547Z,101431.59
2023-06-11T03:13:57.833Z,101426.19
2023-06-11T03:16:25.247Z,101439.72
2023-06-11T03:18:52.530Z,101441.56
2023-06-11T03:21:19.803Z,101442.41
2023-06-11T03:23:47.041Z,101440.72
2023-06-11T03:26:14.301Z,101443.41
2023-06-11T03:28:41.512Z,101450.53
2023-06-11T03:31:08.812Z,101452.38
2023-06-11T03:33:36.111Z,101451.53
2023-06-11T03:36:03.329Z,101444.38
2023-06-11T03:38:30.585Z,101441.69
2023-06-11T03:40:57.818Z,101443.41
2023-06-11T03:43:25.145Z,101447.94
2023-06-11T03:45:52.482Z,101447.94
2023-06-11T03:48:19.747Z,101446.13
2023-06-11T03:50:47.098Z,101449.66
2023-06-11T03:53:14.365Z,101441.69
2023-06-11T03:55:41.613Z,101448.81
2023-06-11T03:58:08.861Z,101441.69
2023-06-11T04:00:36.375Z,101448.94
2023-06-11T04:03:03.771Z,101449.81
2023-06-11T04:05:38.836Z,101451.66
2023-06-11T04:08:06.109Z,101452.50
2023-06-11T04:10:33.645Z,101455.22
2023-06-11T04:13:01.053Z,101455.22
2023-06-11T04:15:28.336Z,101459.78
2023-06-11T04:17:55.631Z,101466.03
2023-06-11T04:20:22.998Z,101459.78
2023-06-11T04:22:50.338Z,101470.59
2023-06-11T04:25:20.236Z,101466.19
2023-06-11T04:27:48.329Z,101472.28
2023-06-11T04:30:15.867Z,101469.75
2023-06-11T04:32:43.257Z,101468.72
2023-06-11T04:35:14.750Z,101472.44
2023-06-11T04:37:43.332Z,101472.44
2023-06-11T04:40:11.751Z,101469.75
2023-06-11T04:42:42.541Z,101469.75
2023-06-11T04:45:11.601Z,101468.88
2023-06-11T04:47:39.461Z,101477.84
2023-06-11T04:50:07.651Z,101468.88
2023-06-11T04:52:44.130Z,101465.34
2023-06-11T04:55:13.448Z,101475.16
2023-06-11T04:57:41.115Z,101462.63
2023-06-11T05:00:09.664Z,101472.44
2023-06-11T05:02:45.661Z,101465.34
2023-06-11T05:05:14.023Z,101473.44
2023-06-11T05:07:42.950Z,101474.28
2023-06-11T05:10:10.468Z,101477.84
2023-06-11T05:12:37.735Z,101471.59
2023-06-11T05:15:05.458Z,101470.59
2023-06-11T05:17:34.014Z,101467.88
2023-06-11T05:20:01.367Z,101472.44
2023-06-11T05:22:28.634Z,101478.56
2023-06-11T05:24:55.931Z,101472.16
2023-06-11T05:27:24.854Z,101476.56
2023-06-11T05:29:52.678Z,101471.88
2023-06-11T05:32:20.102Z,101470.00
2023-06-11T05:34:50.918Z,101466.31
2023-06-11T05:37:18.510Z,101466.19
2023-06-11T05:39:47.066Z,101468.88
2023-06-11T05:42:14.381Z,101476.69
2023-06-11T05:44:42.109Z,101469.44
2023-06-11T05:47:09.400Z,101477.38
2023-06-11T05:49:37.063Z,101479.13
2023-06-11T05:52:04.452Z,101478.13
2023-06-11T05:54:31.690Z,101473.25
2023-06-11T05:56:59.328Z,101487.50
2023-06-11T05:59:26.589Z,101481.94
2023-06-11T06:02:00.264Z,101493.47
2023-06-11T06:04:27.727Z,101482.50
2023-06-11T06:06:57.814Z,101489.63
2023-06-11T06:09:25.044Z,101485.91
2023-06-11T06:11:52.307Z,101487.63
2023-06-11T06:14:19.567Z,101483.06
2023-06-11T06:16:47.196Z,101483.94
2023-06-11T06:19:14.581Z,101485.63
2023-06-11T06:21:42.055Z,101481.06
2023-06-11T06:24:10.982Z,101484.50
2023-06-11T06:26:42.175Z,101486.19
2023-06-11T06:29:09.864Z,101487.88
2023-06-11T06:31:38.244Z,101483.34
2023-06-11T06:34:05.540Z,101488.59
2023-06-11T06:36:32.930Z,101482.19
2023-06-11T06:39:01.304Z,101482.06
2023-06-11T06:41:28.632Z,101480.19
2023-06-11T06:43:57.668Z,101476.47
2023-06-11T06:46:26.547Z,101486.31
2023-06-11T06:48:53.925Z,101481.59
2023-06-11T06:51:21.715Z,101476.19
2023-06-11T06:53:49.217Z,101475.22
2023-06-11T06:56:19.734Z,101487.72
2023-06-11T06:58:46.976Z,101480.47
2023-06-11T07:01:14.320Z,101485.88
2023-06-11T07:03:42.337Z,101485.88
2023-06-11T07:06:09.784Z,101488.75
2023-06-11T07:08:38.839Z,101485.31
2023-06-11T07:11:06.132Z,101485.59
2023-06-11T07:13:33.412Z,101488.44
2023-06-11T07:16:01.193Z,101488.44
2023-06-11T07:18:29.322Z,101491.31
2023-06-11T07:20:56.597Z,101482.19
2023-06-11T07:23:23.861Z,101485.91
2023-06-11T07:25:51.569Z,101487.59
2023-06-11T07:28:18.931Z,101490.31
2023-06-11T07:30:46.315Z,101489.44
2023-06-11T07:33:13.687Z,101489.44
2023-06-11T07:35:41.449Z,101484.88
2023-06-11T07:38:08.767Z,101485.91
2023-06-11T07:40:36.694Z,101485.91
2023-06-11T07:43:03.941Z,101485.91
2023-06-11T07:45:31.395Z,101485.91
2023-06-11T07:47:58.663Z,101484.03
2023-06-11T07:50:26.266Z,101485.91
2023-06-11T07:52:53.486Z,101488.59
2023-06-11T07:55:20.892Z,101491.31
2023-06-11T07:57:48.290Z,101486.75
2023-06-11T08:00:18.059Z,101483.19
2023-06-11T08:02:45.830Z,101484.19
2023-06-11T08:05:18.675Z,101480.47
2023-06-11T08:07:47.178Z,101483.19
2023-06-11T08:10:14.652Z,101481.34
2023-06-11T08:12:42.152Z,101482.19
2023-06-11T08:15:09.880Z,101483.91
2023-06-11T08:17:37.292Z,101481.22
2023-06-11T08:20:07.857Z,101479.47
2023-06-11T08:22:35.207Z,101485.59
2023-06-11T08:25:02.481Z,101475.09
2023-06-11T08:27:29.712Z,101472.41
2023-06-11T08:29:56.994Z,101476.53
2023-06-11T08:32:25.875Z,101473.00
2023-06-11T08:34:53.295Z,101477.69
2023-06-11T08:37:20.562Z,101476.16
2023-06-11T08:39:47.779Z,101472.56
2023-06-11T08:42:15.131Z,101471.72
2023-06-11T08:44:42.683Z,101471.88
2023-06-11T08:47:11.940Z,101479.97
2023-06-11T08:49:45.220Z,101475.56
2023-06-11T08:52:14.330Z,101468.44
2023-06-11T08:54:41.717Z,101471.59
2023-06-11T08:57:09.783Z,101464.88
2023-06-11T08:59:37.020Z,101462.88
2023-06-11T09:02:04.698Z,101458.31
2023-06-11T09:04:32.138Z,101453.78
2023-06-11T09:07:01.888Z,101460.28
2023-06-11T09:09:29.354Z,101458.31
2023-06-11T09:11:56.993Z,101452.59
2023-06-11T09:14:24.268Z,101461.41
2023-06-11T09:16:51.799Z,101453.19
2023-06-11T09:19:20.942Z,101460.00
2023-06-11T09:21:52.787Z,101458.72
2023-06-11T09:24:21.078Z,101451.50
2023-06-11T09:26:59.270Z,101456.03
2023-06-11T09:29:28.829Z,101450.47
2023-06-11T09:32:19.544Z,101451.19
2023-06-11T09:34:57.311Z,101446.63
2023-06-11T09:37:24.785Z,101446.38
2023-06-11T09:39:52.274Z,101442.94
2023-06-11T09:42:27.985Z,101446.09
2023-06-11T09:45:01.978Z,101434.84
2023-06-11T09:47:31.907Z,101444.66
2023-06-11T09:50:00.079Z,101439.50
2023-06-11T09:52:30.792Z,101440.22
2023-06-11T09:54:58.467Z,101434.38
2023-06-11T09:57:26.001Z,101439.22
2023-06-11T09:59:53.705Z,101432.84
2023-06-11T10:02:22.278Z,101439.22
2023-06-11T10:04:49.969Z,101439.78
2023-06-11T10:07:17.603Z,101440.69
2023-06-11T10:09:47.155Z,101442.50
2023-06-11T10:12:17.394Z,101447.78
2023-06-11T10:14:52.436Z,101440.78
2023-06-11T10:17:21.781Z,101435.06
2023-06-11T10:19:50.043Z,101429.78
2023-06-11T10:22:34.804Z,101438.00
2023-06-11T10:25:05.724Z,101444.56
2023-06-11T10:27:41.757Z,101431.19
2023-06-11T10:30:10.385Z,101438.16
2023-06-11T10:32:47.872Z,101437.16
2023-06-11T10:35:23.709Z,101426.88
2023-06-11T10:37:51.113Z,101431.00
2023-06-11T10:40:20.840Z,101434.59
2023-06-11T10:42:53.364Z,101430.91
2023-06-11T10:45:21.126Z,101435.16
2023-06-11T10:47:51.015Z,101432.47
2023-06-11T10:50:26.408Z,101442.28
2023-06-11T10:52:57.232Z,101443.28
2023-06-11T10:55:27.396Z,101432.75
2023-06-11T10:57:55.147Z,101438.84
2023-06-11T11:00:23.231Z,101415.22
2023-06-11T11:02:51.846Z,101437.41
2023-06-11T11:05:19.125Z,101422.47
2023-06-11T11:07:47.077Z,101421.47
2023-06-11T11:10:20.031Z,101424.03
2023-06-11T11:12:48.261Z,101423.75
2023-06-11T11:15:16.287Z,101419.19
2023-06-11T11:17:44.640Z,101417.63
2023-06-11T11:20:18.429Z,101407.50
2023-06-11T11:22:53.610Z,101411.34
2023-06-11T11:25:22.919Z,101409.91
2023-06-11T11:27:50.538Z,101408.91
2023-06-11T11:30:21.002Z,101406.31
2023-06-11T11:32:48.429Z,101402.63
2023-06-11T11:35:16.141Z,101403.50
2023-06-11T11:37:45.828Z,101388.25
2023-06-11T11:40:13.889Z,101402.78
2023-06-11T11:42:48.232Z,101389.94
2023-06-11T11:45:16.065Z,101392.50
2023-06-11T11:47:53.318Z,101389.94
2023-06-11T11:50:28.418Z,101379.84
2023-06-11T11:53:06.845Z,101379.84
2023-06-11T11:55:52.414Z,101382.97
2023-06-11T11:58:28.291Z,101373.00
2023-06-11T12:00:57.730Z,101376.72
2023-06-11T12:03:26.192Z,101364.88
2023-06-11T12:06:07.656Z,101367.59
2023-06-11T12:08:36.647Z,101365.88
2023-06-11T12:11:07.595Z,101363.00
2023-06-11T12:13:35.561Z,101363.59
2023-06-11T12:16:04.872Z,101368.13
2023-06-11T12:18:33.559Z,101360.00
2023-06-11T12:21:01.080Z,101360.41
2023-06-11T12:23:28.405Z,101354.16
2023-06-11T12:25:55.639Z,101352.00
2023-06-11T12:28:22.947Z,101362.81
2023-06-11T12:30:50.285Z,101360.97
2023-06-11T12:33:17.801Z,101353.84
2023-06-11T12:35:45.629Z,101352.13
2023-06-11T12:38:14.115Z,101345.88
2023-06-11T12:40:41.726Z,101348.56
2023-06-11T12:43:09.109Z,101340.00
2023-06-11T12:45:38.530Z,101335.59
2023-06-11T12:48:06.564Z,101338.69
2023-06-11T12:50:34.049Z,101331.59
2023-06-11T12:53:02.569Z,101331.13
2023-06-11T12:55:29.953Z,101330.09
2023-06-11T12:57:57.198Z,101335.50
2023-06-11T13:00:26.441Z,101323.53
2023-06-11T13:02:53.745Z,101332.66
2023-06-11T13:05:22.659Z,101327.25
2023-06-11T13:07:50.504Z,101328.09
2023-06-11T13:10:18.153Z,101322.69
2023-06-11T13:12:45.468Z,101318.13
2023-06-11T13:15:12.700Z,101319.13
2023-06-11T13:17:40.266Z,101321.00
2023-06-11T13:20:11.372Z,101329.13
2023-06-11T13:22:39.483Z,101323.53
2023-06-11T13:25:07.196Z,101317.25
2023-06-11T13:27:34.420Z,101320.81
2023-06-11T13:30:02.551Z,101319.84
2023-06-11T13:32:29.878Z,101314.25
2023-06-11T13:34:58.334Z,101323.22
2023-06-11T13:37:25.637Z,101325.09
2023-06-11T13:39:53.019Z,101320.50
2023-06-11T13:42:20.482Z,101305.28
2023-06-11T13:44:47.756Z,101314.25
2023-06-11T13:47:15.063Z,101311.38
2023-06-11T13:49:42.741Z,101302.94
2023-06-11T13:52:09.967Z,101304.81
2023-06-11T13:54:38.385Z,101314.66
2023-06-11T13:57:05.799Z,101299.94
2023-06-11T13:59:33.734Z,101312.47
2023-06-11T14:05:12.563Z,101310.75
2023-06-11T14:07:40.876Z,101309.78
2023-06-11T14:10:09.055Z,101306.34
2023-06-11T14:12:36.543Z,101309.91
2023-06-11T14:15:04.096Z,101301.97
2023-06-11T14:17:31.786Z,101302.63
2023-06-11T14:19:59.129Z,101292.69
2023-06-11T14:22:26.506Z,101290.81
2023-06-11T14:24:53.829Z,101291.81
2023-06-11T14:27:21.045Z,101298.94
2023-06-11T14:29:48.328Z,101301.47
2023-06-11T14:32:15.799Z,101295.22
2023-06-11T14:34:43.050Z,101288.94
2023-06-11T14:37:10.582Z,101284.56
2023-06-11T14:39:37.802Z,101291.50
2023-06-11T14:42:06.159Z,101290.50
2023-06-11T14:44:33.499Z,101295.09
2023-06-11T14:47:01.132Z,101288.78
2023-06-11T14:49:28.354Z,101278.97
2023-06-11T14:51:56.784Z,101281.97
2023-06-11T14:54:25.929Z,101281.84
2023-06-11T14:56:55.559Z,101278.13
2023-06-11T14:59:22.854Z,101273.41
2023-06-11T15:01:50.097Z,101267.81
2023-06-11T15:04:17.441Z,101279.66
2023-06-11T15:06:44.989Z,101262.94
2023-06-11T15:09:12.273Z,101265.81
2023-06-11T15:11:39.501Z,101266.50
2023-06-11T15:14:06.853Z,101273.78
2023-06-11T15:16:34.197Z,101274.63
2023-06-11T15:19:01.519Z,101271.78
2023-06-11T15:21:28.778Z,101266.56
2023-06-11T15:23:56.710Z,101268.22
2023-06-11T15:26:24.095Z,101264.13
2023-06-11T15:28:51.345Z,101257.91
2023-06-11T15:31:18.716Z,101258.75
2023-06-11T15:33:46.077Z,101261.03
2023-06-11T15:36:13.583Z,101265.44
2023-06-11T15:38:40.921Z,101261.69
2023-06-11T15:41:08.141Z,101260.72
2023-06-11T15:43:35.795Z,101262.41
2023-06-11T15:46:03.463Z,101255.97
2023-06-11T15:48:30.803Z,101256.69
2023-06-11T15:50:58.126Z,101261.06
2023-06-11T15:53:25.550Z,101247.53
2023-06-11T15:55:52.774Z,101253.78
2023-06-11T15:58:20.154Z,101244.69
2023-06-11T16:00:47.512Z,101253.66
2023-06-11T16:03:16.395Z,101245.34
2023-06-11T16:05:44.045Z,101243.53
2023-06-11T16:08:11.790Z,101241.66
2023-06-11T16:10:39.227Z,101242.50
2023-06-11T16:13:06.548Z,101246.91
2023-06-11T16:15:34.561Z,101251.34
2023-06-11T16:18:01.983Z,101252.31
2023-06-11T16:20:31.122Z,101246.22
2023-06-11T16:22:58.430Z,101252.09
2023-06-11T16:25:25.795Z,101252.94
2023-06-11T16:27:53.293Z,101254.09
2023-06-11T16:30:20.744Z,101246.06
2023-06-11T16:32:48.032Z,101249.97
2023-06-11T16:35:17.830Z,101247.41
2023-06-11T16:37:45.728Z,101240.28
2023-06-11T16:40:13.056Z,101243.00
2023-06-11T16:42:40.337Z,101244.00
2023-06-11T16:45:07.964Z,101236.56
2023-06-11T16:47:35.308Z,101235.41
2023-06-11T16:50:02.591Z,101237.81
2023-06-11T16:52:30.907Z,101233.09
2023-06-11T16:55:01.393Z,101239.19
2023-06-11T16:57:29.175Z,101236.47
2023-06-11T16:59:58.211Z,101233.75
2023-06-11T17:02:25.503Z,101235.63
2023-06-11T17:04:52.855Z,101235.50
2023-06-11T17:07:20.269Z,101237.31
2023-06-11T17:09:47.566Z,101219.38
2023-06-11T17:12:15.306Z,101232.91
2023-06-11T17:14:42.528Z,101225.63
2023-06-11T17:17:09.802Z,101227.50
2023-06-11T17:19:37.342Z,101222.09
2023-06-11T17:22:04.690Z,101224.78
2023-06-11T17:24:32.117Z,101233.09
2023-06-11T17:26:59.532Z,101223.41
2023-06-11T17:29:26.794Z,101228.53
2023-06-11T17:31:54.115Z,101225.81
2023-06-11T17:34:21.354Z,101231.22
2023-06-11T17:36:49.304Z,101232.22
2023-06-11T17:39:16.588Z,101233.22
2023-06-11T17:41:43.869Z,101234.94
2023-06-11T17:44:11.102Z,101228.97
2023-06-11T17:46:38.335Z,101228.84
2023-06-11T17:49:05.866Z,101221.38
2023-06-11T17:51:33.110Z,101228.84
2023-06-11T17:54:00.876Z,101227.09
2023-06-11T17:56:28.504Z,101224.34
2023-06-11T17:58:55.713Z,101230.22
2023-06-11T18:01:23.722Z,101227.81
2023-06-11T18:03:51.264Z,101224.97
2023-06-11T18:06:18.962Z,101227.69
2023-06-11T18:08:46.363Z,101235.88
2023-06-11T18:11:13.642Z,101228.22
2023-06-11T18:13:40.912Z,101226.75
2023-06-11T18:16:08.432Z,101222.88
2023-06-11T18:18:35.832Z,101227.44
2023-06-11T18:21:03.131Z,101229.16
2023-06-11T18:23:30.390Z,101234.56
2023-06-11T18:25:58.102Z,101232.00
2023-06-11T18:28:26.494Z,101228.63
2023-06-11T18:30:54.419Z,101233.00
2023-06-11T18:33:21.757Z,101235.88
2023-06-11T18:35:49.137Z,101240.28
2023-06-11T18:38:16.359Z,101235.19
2023-06-11T18:40:43.664Z,101239.03
2023-06-11T18:43:11.018Z,101242.59
2023-06-11T18:45:38.294Z,101238.03
2023-06-11T18:48:05.833Z,101236.19
2023-06-11T18:50:33.192Z,101237.19
2023-06-11T18:53:00.570Z,101229.06
2023-06-11T18:55:30.513Z,101236.34
2023-06-11T18:58:06.265Z,101241.75
2023-06-11T19:00:35.170Z,101242.78
2023-06-11T19:03:03.077Z,101237.50
2023-06-11T19:05:30.776Z,101239.84
2023-06-11T19:07:58.038Z,101247.56
2023-06-11T19:10:25.410Z,101250.44
2023-06-11T19:12:54.897Z,101250.56
2023-06-11T19:15:23.452Z,101247.88
2023-06-11T19:17:50.953Z,101245.63
2023-06-11T19:20:18.575Z,101250.19
2023-06-11T19:22:46.041Z,101249.50
2023-06-11T19:25:13.394Z,101247.81
2023-06-11T19:27:40.633Z,101254.19
2023-06-11T19:30:08.313Z,101251.34
2023-06-11T19:32:36.024Z,101253.59
2023-06-11T19:35:03.321Z,101259.53
2023-06-11T19:37:30.808Z,101262.41
2023-06-11T19:39:58.074Z,101266.13
2023-06-11T19:42:25.289Z,101268.84
2023-06-11T19:44:52.834Z,101264.41
2023-06-11T19:47:20.461Z,101263.56
2023-06-11T19:49:48.531Z,101272.69
2023-06-11T19:52:15.876Z,101281.25
2023-06-11T19:54:51.070Z,101274.47
2023-06-11T19:57:20.034Z,101275.47
2023-06-11T19:59:48.048Z,101282.75
2023-06-11T20:02:15.748Z,101282.75
2023-06-11T20:04:43.161Z,101278.31
2023-06-11T20:07:10.414Z,101286.59
2023-06-11T20:09:37.694Z,101288.44
2023-06-11T20:12:08.205Z,101289.16
2023-06-11T20:14:36.630Z,101294.56
2023-06-11T20:17:04.875Z,101285.03
2023-06-11T20:19:35.088Z,101295.28
2023-06-11T20:22:03.514Z,101295.94
2023-06-11T20:24:30.775Z,101304.19
2023-06-11T20:26:58.042Z,101300.53
2023-06-11T20:29:25.422Z,101296.81
2023-06-11T20:31:53.271Z,101299.97
2023-06-11T20:34:20.799Z,101305.94
2023-06-11T20:36:48.773Z,101300.22
2023-06-11T20:39:16.118Z,101309.31
2023-06-11T20:41:43.443Z,101308.34
2023-06-11T20:44:10.829Z,101304.44
2023-06-11T20:46:38.287Z,101308.72
2023-06-11T20:49:08.893Z,101306.59
2023-06-11T20:51:38.597Z,101322.00
2023-06-11T20:54:06.584Z,101317.59
2023-06-11T20:56:34.126Z,101318.91
2023-06-11T20:59:04.482Z,101318.50
2023-06-11T21:01:31.922Z,101318.50
2023-06-11T21:03:59.301Z,101319.63
2023-06-11T21:06:26.645Z,101321.66
2023-06-11T21:08:53.939Z,101323.06
2023-06-11T21:11:21.246Z,101319.34
2023-06-11T21:14:03.850Z,101321.50
2023-06-11T21:16:37.102Z,101325.88
2023-06-11T21:19:04.544Z,101322.50
2023-06-11T21:21:31.963Z,101332.31
2023-06-11T21:24:00.027Z,101323.66
2023-06-11T21:26:27.554Z,101338.47
2023-06-11T21:28:54.855Z,101324.81
2023-06-11T21:31:22.158Z,101333.69
2023-06-11T21:33:49.465Z,101337.53
2023-06-11T21:36:16.776Z,101333.69
2023-06-11T21:38:44.237Z,101335.38
2023-06-11T21:41:11.699Z,101335.94
2023-06-11T21:43:38.952Z,101346.75
2023-06-11T21:46:06.197Z,101341.34
2023-06-11T21:48:33.714Z,101340.50
2023-06-11T21:51:00.938Z,101346.63
2023-06-11T21:53:28.186Z,101337.66
2023-06-11T21:55:55.449Z,101336.75
2023-06-11T21:58:22.681Z,101336.88
2023-06-11T22:00:49.991Z,101338.28
2023-06-11T22:03:19.861Z,101344.41
2023-06-11T22:05:47.251Z,101348.66
2023-06-11T22:08:14.780Z,101350.34
2023-06-11T22:10:42.070Z,101352.06
2023-06-11T22:13:09.279Z,101355.47
2023-06-11T22:15:36.533Z,101360.72
2023-06-11T22:18:03.819Z,101352.59
2023-06-11T22:20:35.766Z,101353.47
2023-06-11T22:23:03.709Z,101360.59
2023-06-11T22:25:30.954Z,101355.19
2023-06-11T22:27:58.178Z,101362.28
2023-06-11T22:30:25.535Z,101363.13
2023-06-11T22:32:52.800Z,101366.69
2023-06-11T22:35:20.114Z,101374.81
2023-06-11T22:37:47.336Z,101366.69
2023-06-11T22:40:15.157Z,101375.81
2023-06-11T22:42:42.620Z,101371.25
2023-06-11T22:45:10.124Z,101372.09
2023-06-11T22:47:37.810Z,101377.38
2023-06-11T22:50:05.752Z,101375.69
2023-06-11T22:52:39.543Z,101390.19
2023-06-11T22:55:10.914Z,101380.22
2023-06-11T22:57:38.181Z,101389.03
2023-06-11T23:00:07.453Z,101389.03
2023-06-11T23:02:34.710Z,101389.22
2023-06-11T23:05:04.643Z,101380.09
2023-06-11T23:07:32.303Z,101390.06
2023-06-11T23:09:59.520Z,101388.19
2023-06-11T23:12:26.728Z,101394.63
2023-06-11T23:14:53.971Z,101391.91
2023-06-11T23:17:21.266Z,101399.03
2023-06-11T23:19:48.550Z,101398.19
2023-06-11T23:22:18.556Z,101396.31
2023-06-11T23:24:46.220Z,101399.88
2023-06-11T23:27:16.310Z,101404.44
2023-06-11T23:29:44.656Z,101404.56
2023-06-11T23:32:12.124Z,101397.31
2023-06-11T23:34:39.632Z,101401.00
2023-06-11T23:37:07.461Z,101401.84
2023-06-11T23:39:35.345Z,101391.91
2023-06-11T23:42:02.928Z,101394.63
2023-06-11T23:44:30.491Z,101396.44
2023-06-11T23:46:57.806Z,101391.03
2023-06-11T23:49:25.052Z,101385.63
2023-06-11T23:51:52.373Z,101395.59
2023-06-11T23:54:19.601Z,101395.59
2023-06-11T23:56:46.875Z,101386.63
2023-06-11T23:59:14.198Z,101391.19
